Time,TemperatureF,DewpointF,PressureIn,WindDirection,WindDirectionDegrees,WindSpeedMPH,WindSpeedGustMPH,Humidity,HourlyPrecipIn,Conditions,Clouds,dailyrainin,SoftwareType,DateUTC
2014-03-03 00:03:00,18.7,14.9,30.22,NNW,330,0.0,0.0,85,0.00,,,0.00,meteobridge,2014-03-03 06:03:00,
2014-03-03 00:08:00,18.5,15.1,30.22,NNE,13,0.0,0.0,86,0.00,,,0.00,meteobridge,2014-03-03 06:08:00,
2014-03-03 00:13:00,18.3,14.9,30.22,NNW,327,0.0,0.0,86,0.00,,,0.00,meteobridge,2014-03-03 06:13:00,
2014-03-03 00:18:00,18.3,14.9,30.22,NW,307,0.0,0.0,86,0.00,,,0.00,meteobridge,2014-03-03 06:18:00,
2014-03-03 00:23:00,18.3,14.9,30.23,NNE,30,0.0,0.0,86,0.00,,,0.00,meteobridge,2014-03-03 06:23:00,
2014-03-03 00:28:00,18.3,14.9,30.22,WNW,302,0.0,0.0,86,0.00,,,0.00,meteobridge,2014-03-03 06:28:00,
2014-03-03 00:33:00,18.3,15.1,30.23,NNW,333,0.0,0.0,87,0.00,,,0.00,meteobridge,2014-03-03 06:33:00,
2014-03-03 00:38:00,18.3,14.9,30.23,NNW,342,0.0,0.0,86,0.00,,,0.00,meteobridge,2014-03-03 06:38:00,
2014-03-03 00:44:00,18.3,15.1,30.23,NNW,333,0.0,0.0,87,0.00,,,0.00,meteobridge,2014-03-03 06:44:00,
2014-03-03 00:49:00,18.5,15.1,30.24,NNW,336,0.0,0.0,86,0.00,,,0.00,meteobridge,2014-03-03 06:49:00,
2014-03-03 00:54:00,18.7,15.4,30.24,NNW,328,0.0,0.0,87,0.00,,,0.00,meteobridge,2014-03-03 06:54:00,
2014-03-03 00:59:00,18.5,15.3,30.24,North,350,0.0,0.0,87,0.00,,,0.00,meteobridge,2014-03-03 06:59:00,
2014-03-03 01:04:00,18.7,15.4,30.24,NNW,346,0.0,0.0,87,0.00,,,0.00,meteobridge,2014-03-03 07:04:00,
2014-03-03 01:09:00,18.7,15.4,30.24,WNW,292,0.0,0.0,87,0.00,,,0.00,meteobridge,2014-03-03 07:09:00,
2014-03-03 01:14:00,18.5,15.3,30.24,WNW,291,0.0,0.0,87,0.00,,,0.00,meteobridge,2014-03-03 07:14:00,
2014-03-03 01:19:00,18.5,15.3,30.24,NNW,344,0.0,0.0,87,0.00,,,0.00,meteobridge,2014-03-03 07:19:00,
2014-03-03 01:24:00,18.5,15.3,30.24,NW,309,0.0,0.0,87,0.00,,,0.00,meteobridge,2014-03-03 07:24:00,
2014-03-03 01:29:00,18.3,14.5,30.24,NNW,338,0.0,0.0,85,0.00,,,0.00,meteobridge,2014-03-03 07:29:00,
2014-03-03 01:34:00,18.1,14.4,30.25,North,0,0.0,0.0,85,0.00,,,0.00,meteobridge,2014-03-03 07:34:00,
2014-03-03 01:39:00,18.1,14.7,30.25,North,5,0.0,0.0,86,0.00,,,0.00,meteobridge,2014-03-03 07:39:00,
2014-03-03 01:44:00,18.1,14.7,30.25,NNE,15,0.0,0.0,86,0.00,,,0.00,meteobridge,2014-03-03 07:44:00,
2014-03-03 01:49:00,18.1,14.4,30.25,NNW,337,0.0,0.0,85,0.00,,,0.00,meteobridge,2014-03-03 07:49:00,
2014-03-03 01:54:00,18.1,14.4,30.25,NW,326,0.0,0.0,85,0.00,,,0.00,meteobridge,2014-03-03 07:54:00,
2014-03-03 01:59:00,18.1,14.2,30.25,NNW,329,0.0,0.0,84,0.00,,,0.00,meteobridge,2014-03-03 07:59:00,
2014-03-03 02:04:00,18.1,14.4,30.25,NW,326,0.0,0.0,85,0.00,,,0.00,meteobridge,2014-03-03 08:04:00,
2014-03-03 02:09:00,18.3,15.1,30.25,NNW,333,0.0,0.0,87,0.00,,,0.00,meteobridge,2014-03-03 08:09:00,
2014-03-03 02:14:00,18.3,14.5,30.25,NW,309,0.0,0.0,85,0.00,,,0.00,meteobridge,2014-03-03 08:14:00,
2014-03-03 02:19:00,18.3,14.5,30.24,NW,326,0.0,0.0,85,0.00,,,0.00,meteobridge,2014-03-03 08:19:00,
2014-03-03 02:24:00,18.3,14.5,30.24,North,9,0.0,0.0,85,0.00,,,0.00,meteobridge,2014-03-03 08:24:00,
2014-03-03 02:29:00,18.3,14.9,30.24,NNW,335,0.0,0.0,86,0.00,,,0.00,meteobridge,2014-03-03 08:29:00,
2014-03-03 02:34:00,18.3,14.9,30.24,NNW,334,0.0,0.0,86,0.00,,,0.00,meteobridge,2014-03-03 08:34:00,
2014-03-03 02:39:00,18.1,14.4,30.24,NNW,336,0.0,0.0,85,0.00,,,0.00,meteobridge,2014-03-03 08:39:00,
2014-03-03 02:44:00,18.1,14.4,30.24,NNW,340,0.0,0.0,85,0.00,,,0.00,meteobridge,2014-03-03 08:44:00,
2014-03-03 02:49:00,18.1,14.4,30.24,North,355,0.0,0.0,85,0.00,,,0.00,meteobridge,2014-03-03 08:49:00,
2014-03-03 02:55:00,18.0,14.0,30.25,NW,320,0.0,0.0,84,0.00,,,0.00,meteobridge,2014-03-03 08:55:00,
2014-03-03 03:00:00,18.0,14.2,30.25,NNE,14,0.0,0.0,85,0.00,,,0.00,meteobridge,2014-03-03 09:00:00,
2014-03-03 03:05:00,18.0,14.5,30.25,North,355,0.0,0.0,86,0.00,,,0.00,meteobridge,2014-03-03 09:05:00,
2014-03-03 03:10:00,17.8,13.8,30.25,NW,313,0.0,0.0,84,0.00,,,0.00,meteobridge,2014-03-03 09:10:00,
2014-03-03 03:15:00,17.4,13.1,30.25,North,355,0.0,0.0,83,0.00,,,0.00,meteobridge,2014-03-03 09:15:00,
2014-03-03 03:20:00,17.4,13.5,30.25,NNW,329,0.0,0.0,84,0.00,,,0.00,meteobridge,2014-03-03 09:20:00,
2014-03-03 03:25:00,17.4,13.5,30.25,NNW,346,0.0,0.0,84,0.00,,,0.00,meteobridge,2014-03-03 09:25:00,
2014-03-03 03:30:00,17.4,13.5,30.26,North,11,0.0,0.0,84,0.00,,,0.00,meteobridge,2014-03-03 09:30:00,
2014-03-03 03:35:00,17.2,13.3,30.26,North,355,0.0,0.0,84,0.00,,,0.00,meteobridge,2014-03-03 09:35:00,
2014-03-03 03:40:00,17.4,13.6,30.27,WNW,297,0.0,0.0,85,0.00,,,0.00,meteobridge,2014-03-03 09:40:00,
2014-03-03 03:45:00,17.4,13.5,30.27,NNW,340,0.0,0.0,84,0.00,,,0.00,meteobridge,2014-03-03 09:45:00,
2014-03-03 03:50:00,17.1,12.7,30.27,NNW,330,0.0,0.0,83,0.00,,,0.00,meteobridge,2014-03-03 09:50:00,
2014-03-03 03:55:00,17.1,13.1,30.27,NNW,333,0.0,0.0,84,0.00,,,0.00,meteobridge,2014-03-03 09:55:00,
2014-03-03 04:00:00,16.9,12.4,30.27,NNW,337,0.0,0.0,82,0.00,,,0.00,meteobridge,2014-03-03 10:00:00,
2014-03-03 04:05:00,16.7,12.2,30.27,NE,34,0.0,0.0,82,0.00,,,0.00,meteobridge,2014-03-03 10:05:00,
2014-03-03 04:10:00,16.5,12.2,30.27,NNE,26,0.0,0.0,83,0.00,,,0.00,meteobridge,2014-03-03 10:10:00,
2014-03-03 04:16:00,16.5,12.2,30.28,North,349,0.0,0.0,83,0.00,,,0.00,meteobridge,2014-03-03 10:16:00,
2014-03-03 04:21:00,16.5,12.2,30.27,North,355,0.0,0.0,83,0.00,,,0.00,meteobridge,2014-03-03 10:21:00,
2014-03-03 04:26:00,16.3,12.0,30.28,NNW,334,0.0,0.0,83,0.00,,,0.00,meteobridge,2014-03-03 10:26:00,
2014-03-03 04:31:00,16.3,11.8,30.28,North,351,0.0,0.0,82,0.00,,,0.00,meteobridge,2014-03-03 10:31:00,
2014-03-03 04:36:00,16.3,12.0,30.28,NW,323,0.0,0.0,83,0.00,,,0.00,meteobridge,2014-03-03 10:36:00,
2014-03-03 04:41:00,16.3,12.0,30.29,NNW,346,0.0,0.0,83,0.00,,,0.00,meteobridge,2014-03-03 10:41:00,
2014-03-03 04:46:00,16.3,11.8,30.29,North,0,0.0,0.0,82,0.00,,,0.00,meteobridge,2014-03-03 10:46:00,
2014-03-03 04:51:00,16.3,12.0,30.29,NNE,24,0.0,0.0,83,0.00,,,0.00,meteobridge,2014-03-03 10:51:00,
2014-03-03 04:56:00,16.3,12.0,30.29,NW,321,0.0,0.0,83,0.00,,,0.00,meteobridge,2014-03-03 10:56:00,
2014-03-03 05:01:00,16.3,12.4,30.29,NNW,342,0.0,0.0,84,0.00,,,0.00,meteobridge,2014-03-03 11:01:00,
2014-03-03 05:06:00,16.3,12.0,30.29,NNW,348,0.0,0.0,83,0.00,,,0.00,meteobridge,2014-03-03 11:06:00,
2014-03-03 05:11:00,16.3,12.0,30.29,NNW,338,0.0,0.0,83,0.00,,,0.00,meteobridge,2014-03-03 11:11:00,
2014-03-03 05:16:00,16.3,12.4,30.30,WNW,296,0.0,0.0,84,0.00,,,0.00,meteobridge,2014-03-03 11:16:00,
2014-03-03 05:22:00,16.3,12.0,30.30,NW,311,0.0,0.0,83,0.00,,,0.00,meteobridge,2014-03-03 11:22:00,
2014-03-03 05:27:00,16.3,12.0,30.30,NW,318,0.0,0.0,83,0.00,,,0.00,meteobridge,2014-03-03 11:27:00,
2014-03-03 05:32:00,16.3,12.4,30.30,NNW,331,0.0,0.0,84,0.00,,,0.00,meteobridge,2014-03-03 11:32:00,
2014-03-03 05:37:00,16.3,12.0,30.31,NNW,346,0.0,0.0,83,0.00,,,0.00,meteobridge,2014-03-03 11:37:00,
2014-03-03 05:42:00,16.3,12.0,30.31,North,350,0.0,0.0,83,0.00,,,0.00,meteobridge,2014-03-03 11:42:00,
2014-03-03 05:47:00,16.3,12.0,30.31,NNW,334,0.0,0.0,83,0.00,,,0.00,meteobridge,2014-03-03 11:47:00,
2014-03-03 05:52:00,16.3,12.4,30.31,NW,312,0.0,0.0,84,0.00,,,0.00,meteobridge,2014-03-03 11:52:00,
2014-03-03 05:57:00,16.3,12.0,30.32,NNW,329,0.0,0.0,83,0.00,,,0.00,meteobridge,2014-03-03 11:57:00,
2014-03-03 06:02:00,16.3,12.0,30.32,North,355,0.0,0.0,83,0.00,,,0.00,meteobridge,2014-03-03 12:02:00,
2014-03-03 06:08:00,16.3,12.4,30.32,North,355,0.0,0.0,84,0.00,,,0.00,meteobridge,2014-03-03 12:08:00,
2014-03-03 06:13:00,16.3,12.0,30.32,North,355,0.0,0.0,83,0.00,,,0.00,meteobridge,2014-03-03 12:13:00,
2014-03-03 06:18:00,16.3,12.0,30.32,North,0,0.0,0.0,83,0.00,,,0.00,meteobridge,2014-03-03 12:18:00,
2014-03-03 06:23:00,16.3,12.4,30.33,NE,36,0.0,0.0,84,0.00,,,0.00,meteobridge,2014-03-03 12:23:00,
2014-03-03 06:28:00,16.3,12.4,30.33,NNW,333,0.0,0.0,84,0.00,,,0.00,meteobridge,2014-03-03 12:28:00,
2014-03-03 06:33:00,16.2,11.8,30.32,NNW,338,0.0,0.0,83,0.00,,,0.00,meteobridge,2014-03-03 12:33:00,
2014-03-03 06:38:00,16.2,11.8,30.32,NW,321,0.0,0.0,83,0.00,,,0.00,meteobridge,2014-03-03 12:38:00,
2014-03-03 06:43:00,16.2,12.2,30.33,NNW,337,0.0,0.0,84,0.00,,,0.00,meteobridge,2014-03-03 12:43:00,
2014-03-03 06:48:00,16.2,11.8,30.33,NNW,327,0.0,0.0,83,0.00,,,0.00,meteobridge,2014-03-03 12:48:00,
2014-03-03 06:53:00,16.2,12.2,30.33,WNW,299,0.0,0.0,84,0.00,,,0.00,meteobridge,2014-03-03 12:53:00,
2014-03-03 06:58:00,16.2,11.8,30.33,NNW,333,0.0,0.0,83,0.00,,,0.00,meteobridge,2014-03-03 12:58:00,
2014-03-03 07:03:00,16.2,11.8,30.33,NW,304,0.0,0.0,83,0.00,,,0.00,meteobridge,2014-03-03 13:03:00,
2014-03-03 07:08:00,16.0,11.1,30.33,NNE,14,0.0,0.0,81,0.00,,,0.00,meteobridge,2014-03-03 13:08:00,
2014-03-03 07:13:00,15.8,11.3,30.34,NW,310,0.0,0.0,82,0.00,,,0.00,meteobridge,2014-03-03 13:13:00,
2014-03-03 07:18:00,15.6,11.1,30.34,North,5,0.0,0.0,82,0.00,,,0.00,meteobridge,2014-03-03 13:18:00,
2014-03-03 07:23:00,15.6,11.1,30.34,NW,323,0.0,0.0,82,0.00,,,0.00,meteobridge,2014-03-03 13:23:00,
2014-03-03 07:28:00,15.4,10.9,30.34,NNW,338,0.0,0.0,82,0.00,,,0.00,meteobridge,2014-03-03 13:28:00,
2014-03-03 07:33:00,15.6,11.1,30.34,NNW,340,0.0,0.0,82,0.00,,,0.00,meteobridge,2014-03-03 13:33:00,
2014-03-03 07:38:00,16.0,11.5,30.34,NNW,339,0.0,0.0,82,0.00,,,0.00,meteobridge,2014-03-03 13:38:00,
2014-03-03 07:44:00,16.0,11.1,30.34,NNE,15,0.0,0.0,81,0.00,,,0.00,meteobridge,2014-03-03 13:44:00,
2014-03-03 07:49:00,16.2,11.7,30.34,North,0,0.0,0.0,82,0.00,,,0.00,meteobridge,2014-03-03 13:49:00,
2014-03-03 07:54:00,16.2,11.3,30.35,NNW,343,0.0,0.0,81,0.00,,,0.00,meteobridge,2014-03-03 13:54:00,
2014-03-03 07:59:00,16.3,11.8,30.35,NW,309,0.0,0.0,82,0.00,,,0.00,meteobridge,2014-03-03 13:59:00,
2014-03-03 08:04:00,16.7,11.8,30.35,NNE,24,0.0,0.0,81,0.00,,,0.00,meteobridge,2014-03-03 14:04:00,
2014-03-03 08:09:00,16.5,11.7,30.35,WNW,288,0.0,0.0,81,0.00,,,0.00,meteobridge,2014-03-03 14:09:00,
2014-03-03 08:14:00,16.0,11.1,30.35,NNW,342,0.0,0.0,81,0.00,,,0.00,meteobridge,2014-03-03 14:14:00,
2014-03-03 08:19:00,15.4,10.4,30.36,NNW,344,0.0,0.0,80,0.00,,,0.00,meteobridge,2014-03-03 14:19:00,
2014-03-03 08:24:00,15.4,10.0,30.36,North,0,0.0,0.0,79,0.00,,,0.00,meteobridge,2014-03-03 14:24:00,
2014-03-03 08:29:00,15.6,10.2,30.36,North,355,0.0,0.0,79,0.00,,,0.00,meteobridge,2014-03-03 14:29:00,
2014-03-03 08:35:00,16.2,11.1,30.36,NNW,342,0.0,0.0,80,0.00,,,0.00,meteobridge,2014-03-03 14:35:00,
2014-03-03 08:40:00,16.3,10.9,30.36,NW,323,0.0,0.0,79,0.00,,,0.00,meteobridge,2014-03-03 14:40:00,
2014-03-03 08:45:00,16.3,11.3,30.35,North,350,0.0,0.0,80,0.00,,,0.00,meteobridge,2014-03-03 14:45:00,
2014-03-03 08:50:00,16.3,10.9,30.35,NE,50,0.0,0.0,79,0.00,,,0.00,meteobridge,2014-03-03 14:50:00,
2014-03-03 08:55:00,16.0,10.6,30.35,NW,306,0.0,0.0,79,0.00,,,0.00,meteobridge,2014-03-03 14:55:00,
2014-03-03 09:00:00,16.2,11.1,30.36,North,5,0.0,0.0,80,0.00,,,0.00,meteobridge,2014-03-03 15:00:00,
2014-03-03 09:05:00,16.3,11.3,30.36,NNE,22,0.0,0.0,80,0.00,,,0.00,meteobridge,2014-03-03 15:05:00,
2014-03-03 09:10:00,16.2,10.6,30.37,North,355,0.0,0.0,78,0.00,,,0.00,meteobridge,2014-03-03 15:10:00,
2014-03-03 09:15:00,16.5,11.1,30.37,NE,45,0.0,0.0,79,0.00,,,0.00,meteobridge,2014-03-03 15:15:00,
2014-03-03 09:20:00,16.5,11.1,30.37,NNW,331,0.0,0.0,79,0.00,,,0.00,meteobridge,2014-03-03 15:20:00,
2014-03-03 09:25:00,16.5,11.1,30.37,NNE,15,0.0,0.0,79,0.00,,,0.00,meteobridge,2014-03-03 15:25:00,
2014-03-03 09:30:00,16.5,11.1,30.37,NNE,15,0.0,-999.0,79,0.00,,,0.00,meteobridge,2014-03-03 15:30:00,
2014-03-03 09:36:00,16.9,11.3,30.38,North,-999,-999.0,-999.0,78,0.00,,,0.00,meteobridge,2014-03-03 15:36:00,
2014-03-03 09:41:00,16.7,11.3,30.38,North,0,0.0,0.0,79,0.00,,,0.00,meteobridge,2014-03-03 15:41:00,
2014-03-03 09:46:00,16.9,11.5,30.38,NW,323,0.0,0.0,79,0.00,,,0.00,meteobridge,2014-03-03 15:46:00,
2014-03-03 09:52:00,17.2,11.8,30.38,NNW,344,0.0,0.0,79,0.00,,,0.00,meteobridge,2014-03-03 15:52:00,
2014-03-03 09:57:00,17.4,11.7,30.38,NNE,13,0.0,0.0,78,0.00,,,0.00,meteobridge,2014-03-03 15:57:00,
2014-03-03 10:02:00,17.8,12.7,30.38,NNW,335,0.0,0.0,80,0.00,,,0.00,meteobridge,2014-03-03 16:02:00,
2014-03-03 10:07:00,18.0,12.6,30.38,NNW,333,0.0,0.0,79,0.00,,,0.00,meteobridge,2014-03-03 16:07:00,
2014-03-03 10:12:00,17.6,11.7,30.38,NW,306,0.0,0.0,77,0.00,,,0.00,meteobridge,2014-03-03 16:12:00,
2014-03-03 10:17:00,18.0,12.6,30.38,North,0,0.0,0.0,79,0.00,,,0.00,meteobridge,2014-03-03 16:17:00,
2014-03-03 10:22:00,18.1,13.1,30.38,NNW,339,0.0,0.0,80,0.00,,,0.00,meteobridge,2014-03-03 16:22:00,
2014-03-03 10:27:00,18.1,12.4,30.39,NNW,348,0.0,0.0,78,0.00,,,0.00,meteobridge,2014-03-03 16:27:00,
2014-03-03 10:32:00,18.1,12.4,30.39,NNW,343,0.0,0.0,78,0.00,,,0.00,meteobridge,2014-03-03 16:32:00,
2014-03-03 10:37:00,18.1,12.4,30.39,North,350,0.0,0.0,78,0.00,,,0.00,meteobridge,2014-03-03 16:37:00,
2014-03-03 10:42:00,18.3,12.4,30.39,NNW,346,0.0,0.0,77,0.00,,,0.00,meteobridge,2014-03-03 16:42:00,
2014-03-03 10:47:00,18.9,13.1,30.39,NNE,17,0.0,0.0,78,0.00,,,0.00,meteobridge,2014-03-03 16:47:00,
2014-03-03 10:52:00,19.2,13.8,30.39,NNW,336,0.0,0.0,79,0.00,,,0.00,meteobridge,2014-03-03 16:52:00,
2014-03-03 10:57:00,19.6,13.8,30.39,NNW,328,0.0,0.0,78,0.00,,,0.00,meteobridge,2014-03-03 16:57:00,
2014-03-03 11:02:00,19.8,13.6,30.38,NNW,344,0.0,0.0,77,0.00,,,0.00,meteobridge,2014-03-03 17:02:00,
2014-03-03 11:07:00,19.9,13.6,30.38,North,9,0.0,0.0,76,0.00,,,0.00,meteobridge,2014-03-03 17:07:00,
2014-03-03 11:12:00,19.9,13.8,30.38,NNE,29,0.0,0.0,77,0.00,,,0.00,meteobridge,2014-03-03 17:12:00,
2014-03-03 11:17:00,20.5,14.7,30.38,NNW,348,0.0,0.0,78,0.00,,,0.00,meteobridge,2014-03-03 17:17:00,
2014-03-03 11:22:00,20.7,14.4,30.38,NE,46,0.0,0.0,76,0.00,,,0.00,meteobridge,2014-03-03 17:22:00,
2014-03-03 11:27:00,20.8,14.7,30.37,NNE,19,0.0,0.0,77,0.00,,,0.00,meteobridge,2014-03-03 17:27:00,
2014-03-03 11:32:00,20.8,14.5,30.37,NNE,19,0.0,0.0,76,0.00,,,0.00,meteobridge,2014-03-03 17:32:00,
2014-03-03 11:38:00,20.7,14.4,30.37,WNW,298,0.0,0.0,76,0.00,,,0.00,meteobridge,2014-03-03 17:38:00,
2014-03-03 11:43:00,20.7,14.5,30.37,NNW,344,0.0,0.0,77,0.00,,,0.00,meteobridge,2014-03-03 17:43:00,
2014-03-03 11:48:00,20.8,14.5,30.37,NNW,338,0.0,0.0,76,0.00,,,0.00,meteobridge,2014-03-03 17:48:00,
2014-03-03 11:53:00,20.8,14.7,30.37,NNE,27,0.0,0.0,77,0.00,,,0.00,meteobridge,2014-03-03 17:53:00,
2014-03-03 11:58:00,21.4,15.6,30.37,NNW,348,0.0,0.0,78,0.00,,,0.00,meteobridge,2014-03-03 17:58:00,
2014-03-03 12:03:00,21.4,15.3,30.37,NW,313,0.0,0.0,77,0.00,,,0.00,meteobridge,2014-03-03 18:03:00,
2014-03-03 12:08:00,21.6,15.4,30.36,North,0,0.0,0.0,77,0.00,,,0.00,meteobridge,2014-03-03 18:08:00,
2014-03-03 12:13:00,21.4,15.6,30.36,NNW,336,0.0,0.0,78,0.00,,,0.00,meteobridge,2014-03-03 18:13:00,
2014-03-03 12:18:00,21.7,16.2,30.36,North,355,0.0,0.0,79,0.00,,,0.00,meteobridge,2014-03-03 18:18:00,
2014-03-03 12:23:00,21.9,15.8,30.36,NW,317,0.0,0.0,77,0.00,,,0.00,meteobridge,2014-03-03 18:23:00,
2014-03-03 12:28:00,21.7,16.0,30.36,NNW,346,0.0,0.0,78,0.00,,,0.00,meteobridge,2014-03-03 18:28:00,
2014-03-03 12:34:00,21.7,15.6,30.35,WNW,302,0.0,0.0,77,0.00,,,0.00,meteobridge,2014-03-03 18:34:00,
2014-03-03 12:39:00,22.1,16.9,30.36,NNE,18,0.0,0.0,80,0.00,,,0.00,meteobridge,2014-03-03 18:39:00,
2014-03-03 12:44:00,22.3,15.8,30.34,NNW,340,0.0,0.0,76,0.00,,,0.00,meteobridge,2014-03-03 18:44:00,
2014-03-03 12:49:00,22.3,16.2,30.34,NW,321,0.0,0.0,77,0.00,,,0.00,meteobridge,2014-03-03 18:49:00,
2014-03-03 12:54:00,22.5,16.3,30.34,North,5,0.0,0.0,77,0.00,,,0.00,meteobridge,2014-03-03 18:54:00,
2014-03-03 12:59:00,22.6,16.9,30.34,North,355,0.0,0.0,78,0.00,,,0.00,meteobridge,2014-03-03 18:59:00,
2014-03-03 13:04:00,22.8,16.7,30.34,NNE,17,0.0,0.0,77,0.00,,,0.00,meteobridge,2014-03-03 19:04:00,
2014-03-03 13:09:00,22.6,16.2,30.33,NNW,339,0.0,0.0,76,0.00,,,0.00,meteobridge,2014-03-03 19:09:00,
2014-03-03 13:14:00,22.8,17.1,30.33,ENE,59,0.0,0.0,78,0.00,,,0.00,meteobridge,2014-03-03 19:14:00,
2014-03-03 13:19:00,22.8,16.7,30.34,NNE,19,0.0,0.0,77,0.00,,,0.00,meteobridge,2014-03-03 19:19:00,
2014-03-03 13:24:00,23.2,17.4,30.34,NW,319,0.0,0.0,78,0.00,,,0.00,meteobridge,2014-03-03 19:24:00,
2014-03-03 13:29:00,22.8,16.3,30.34,NW,314,0.0,0.0,76,0.00,,,0.00,meteobridge,2014-03-03 19:29:00,
2014-03-03 13:34:00,23.4,17.2,30.33,NNW,338,0.0,0.0,77,0.00,,,0.00,meteobridge,2014-03-03 19:34:00,
2014-03-03 13:39:00,23.7,17.6,30.33,WNW,292,0.0,0.0,77,0.00,,,0.00,meteobridge,2014-03-03 19:39:00,
2014-03-03 13:44:00,24.3,17.4,30.32,WNW,300,0.0,0.0,75,0.00,,,0.00,meteobridge,2014-03-03 19:44:00,
2014-03-03 13:49:00,23.7,16.9,30.32,NNW,347,8.1,11.0,75,0.00,,,0.00,meteobridge,2014-03-03 19:49:00,
2014-03-03 13:54:00,23.7,17.6,30.31,NW,317,8.9,11.0,77,0.00,,,0.00,meteobridge,2014-03-03 19:54:00,
2014-03-03 14:00:00,24.1,17.6,30.31,NW,325,4.9,8.9,76,0.00,,,0.00,meteobridge,2014-03-03 20:00:00,
2014-03-03 14:05:00,24.3,17.8,30.31,NNW,344,4.9,8.1,76,0.00,,,0.00,meteobridge,2014-03-03 20:05:00,
2014-03-03 14:10:00,24.6,18.5,30.31,ENE,63,8.9,11.0,77,0.00,,,0.00,meteobridge,2014-03-03 20:10:00,
2014-03-03 14:15:00,24.8,18.9,30.31,North,355,2.0,6.0,78,0.00,,,0.00,meteobridge,2014-03-03 20:15:00,
2014-03-03 14:20:00,24.6,17.8,30.31,WNW,288,2.9,8.1,75,0.00,,,0.00,meteobridge,2014-03-03 20:20:00,
2014-03-03 14:25:00,24.4,18.0,30.31,NE,49,2.9,12.1,76,0.00,,,0.00,meteobridge,2014-03-03 20:25:00,
2014-03-03 14:30:00,24.8,18.3,30.31,WNW,292,2.9,4.0,76,0.00,,,0.00,meteobridge,2014-03-03 20:30:00,
2014-03-03 14:35:00,25.0,18.5,30.31,NNW,335,4.0,4.0,76,0.01,,,0.01,meteobridge,2014-03-03 20:35:00,
2014-03-03 14:40:00,25.0,18.5,30.30,NNE,18,2.9,8.9,76,0.01,,,0.01,meteobridge,2014-03-03 20:40:00,
2014-03-03 14:45:00,25.3,19.8,30.30,NNW,329,4.0,6.0,79,0.01,,,0.01,meteobridge,2014-03-03 20:45:00,
2014-03-03 14:50:00,25.2,19.0,30.31,NNW,338,4.0,4.0,77,0.01,,,0.01,meteobridge,2014-03-03 20:50:00,
2014-03-03 14:55:00,25.2,19.2,30.30,North,355,2.0,4.0,78,0.01,,,0.01,meteobridge,2014-03-03 20:55:00,
2014-03-03 15:00:00,25.2,19.0,30.30,NW,320,2.0,4.9,77,0.01,,,0.01,meteobridge,2014-03-03 21:00:00,
2014-03-03 15:05:00,25.5,19.4,30.30,NE,55,2.0,4.9,77,0.01,,,0.01,meteobridge,2014-03-03 21:05:00,
2014-03-03 15:11:00,25.5,19.4,30.30,NW,315,4.0,4.0,77,0.01,,,0.01,meteobridge,2014-03-03 21:11:00,
2014-03-03 15:16:00,25.3,19.2,30.30,East,84,4.0,4.9,77,0.01,,,0.01,meteobridge,2014-03-03 21:16:00,
2014-03-03 15:21:00,25.5,19.4,30.30,NNW,346,0.9,4.0,77,0.01,,,0.01,meteobridge,2014-03-03 21:21:00,
2014-03-03 15:26:00,26.1,20.1,30.30,NNW,332,4.0,4.0,78,0.01,,,0.01,meteobridge,2014-03-03 21:26:00,
2014-03-03 15:31:00,26.1,20.1,30.29,North,0,2.9,4.9,78,0.01,,,0.01,meteobridge,2014-03-03 21:31:00,
2014-03-03 15:36:00,26.1,19.6,30.29,East,82,6.9,8.9,76,0.00,,,0.01,meteobridge,2014-03-03 21:36:00,
2014-03-03 15:41:00,26.2,19.9,30.29,NNE,16,2.9,4.9,77,0.00,,,0.01,meteobridge,2014-03-03 21:41:00,
2014-03-03 15:46:00,26.4,19.9,30.29,North,9,0.9,4.9,76,0.00,,,0.01,meteobridge,2014-03-03 21:46:00,
2014-03-03 15:51:00,26.6,20.1,30.29,North,355,2.0,6.9,76,0.00,,,0.01,meteobridge,2014-03-03 21:51:00,
2014-03-03 15:56:00,26.4,19.6,30.29,East,96,2.9,6.9,75,0.00,,,0.01,meteobridge,2014-03-03 21:56:00,
2014-03-03 16:01:00,26.1,19.2,30.29,ENE,62,4.0,6.0,75,0.00,,,0.01,meteobridge,2014-03-03 22:01:00,
2014-03-03 16:06:00,25.9,19.8,30.29,ENE,70,6.0,8.1,77,0.00,,,0.01,meteobridge,2014-03-03 22:06:00,
2014-03-03 16:12:00,26.1,19.8,30.30,East,86,4.9,4.9,77,0.00,,,0.01,meteobridge,2014-03-03 22:12:00,
2014-03-03 16:17:00,26.2,20.3,30.29,East,85,4.0,4.0,78,0.00,,,0.01,meteobridge,2014-03-03 22:17:00,
2014-03-03 16:22:00,26.2,19.8,30.29,ESE,113,2.9,6.9,76,0.00,,,0.01,meteobridge,2014-03-03 22:22:00,
2014-03-03 16:27:00,26.4,20.1,30.29,ENE,62,4.9,4.9,77,0.00,,,0.01,meteobridge,2014-03-03 22:27:00,
2014-03-03 16:32:00,26.2,19.8,30.30,East,83,0.0,4.9,76,0.00,,,0.01,meteobridge,2014-03-03 22:32:00,
2014-03-03 16:37:00,26.4,20.8,30.29,NNE,14,2.9,2.9,79,0.00,,,0.01,meteobridge,2014-03-03 22:37:00,
2014-03-03 16:42:00,26.4,20.1,30.29,ENE,63,4.0,8.1,77,0.00,,,0.01,meteobridge,2014-03-03 22:42:00,
2014-03-03 16:47:00,26.2,19.8,30.29,NE,53,4.9,6.0,76,0.00,,,0.01,meteobridge,2014-03-03 22:47:00,
2014-03-03 16:52:00,26.4,20.5,30.29,NE,38,2.9,4.0,78,0.00,,,0.01,meteobridge,2014-03-03 22:52:00,
2014-03-03 16:57:00,26.8,20.5,30.29,NNW,329,2.0,4.0,77,0.00,,,0.01,meteobridge,2014-03-03 22:57:00,
2014-03-03 17:03:00,26.8,20.3,30.29,NNE,15,2.0,4.9,76,0.00,,,0.01,meteobridge,2014-03-03 23:03:00,
2014-03-03 17:08:00,26.8,20.5,30.29,ENE,57,6.0,6.0,77,0.00,,,0.01,meteobridge,2014-03-03 23:08:00,
2014-03-03 17:13:00,26.8,21.2,30.28,NNE,25,2.9,4.9,79,0.00,,,0.01,meteobridge,2014-03-03 23:13:00,
2014-03-03 17:18:00,27.0,21.0,30.28,NNE,14,2.9,4.9,78,0.00,,,0.01,meteobridge,2014-03-03 23:18:00,
2014-03-03 17:23:00,27.0,20.7,30.28,NE,52,6.0,8.9,77,0.00,,,0.01,meteobridge,2014-03-03 23:23:00,
2014-03-03 17:28:00,26.8,20.8,30.28,NE,34,4.9,8.9,78,0.00,,,0.01,meteobridge,2014-03-03 23:28:00,
2014-03-03 17:33:00,26.8,20.3,30.28,NE,53,4.9,10.1,76,0.00,,,0.01,meteobridge,2014-03-03 23:33:00,
2014-03-03 17:38:00,26.6,20.3,30.28,ENE,65,4.0,10.1,77,0.00,,,0.01,meteobridge,2014-03-03 23:38:00,
2014-03-03 17:43:00,26.4,20.8,30.28,ENE,57,4.0,4.9,79,0.00,,,0.01,meteobridge,2014-03-03 23:43:00,
2014-03-03 17:48:00,26.6,21.0,30.28,ENE,71,4.0,6.9,79,0.00,,,0.01,meteobridge,2014-03-03 23:48:00,
2014-03-03 17:53:00,26.8,21.2,30.28,NNE,22,2.0,4.0,79,0.00,,,0.01,meteobridge,2014-03-03 23:53:00,
2014-03-03 17:58:00,26.8,21.4,30.28,NE,40,2.9,4.0,80,0.00,,,0.01,meteobridge,2014-03-03 23:58:00,
2014-03-03 18:03:00,26.6,20.3,30.28,ENE,62,4.9,4.9,77,0.00,,,0.00,meteobridge,2014-03-04 00:03:00,
2014-03-03 18:08:00,26.4,20.8,30.28,NW,313,2.0,2.9,79,0.00,,,0.00,meteobridge,2014-03-04 00:08:00,
2014-03-03 18:13:00,26.4,20.8,30.28,ENE,57,2.0,6.0,79,0.00,,,0.00,meteobridge,2014-03-04 00:13:00,
2014-03-03 18:18:00,26.4,20.8,30.28,ENE,68,4.0,4.0,79,0.00,,,0.00,meteobridge,2014-03-04 00:18:00,
2014-03-03 18:23:00,26.4,21.0,30.28,ENE,59,4.0,4.0,80,0.00,,,0.00,meteobridge,2014-03-04 00:23:00,
2014-03-03 18:28:00,26.4,21.0,30.28,NE,55,2.9,6.9,80,0.00,,,0.00,meteobridge,2014-03-04 00:28:00,
2014-03-03 18:33:00,26.2,20.8,30.28,East,86,4.0,4.9,80,0.00,,,0.00,meteobridge,2014-03-04 00:33:00,
2014-03-03 18:38:00,26.1,20.7,30.28,East,84,4.0,4.9,80,0.00,,,0.00,meteobridge,2014-03-04 00:38:00,
2014-03-03 18:43:00,26.1,21.0,30.28,NE,36,2.0,4.0,81,0.00,,,0.00,meteobridge,2014-03-04 00:43:00,
2014-03-03 18:48:00,26.1,21.4,30.28,ENE,67,2.9,4.0,82,0.00,,,0.00,meteobridge,2014-03-04 00:48:00,
2014-03-03 18:54:00,25.9,21.2,30.28,ESE,107,4.0,4.9,82,0.00,,,0.00,meteobridge,2014-03-04 00:54:00,
2014-03-03 18:59:00,25.9,21.4,30.28,East,82,2.0,2.9,83,0.00,,,0.00,meteobridge,2014-03-04 00:59:00,
2014-03-03 19:04:00,25.9,21.4,30.27,ENE,65,4.0,4.0,83,0.00,,,0.00,meteobridge,2014-03-04 01:04:00,
2014-03-03 19:09:00,25.5,21.0,30.28,NNE,17,0.9,2.9,83,0.00,,,0.00,meteobridge,2014-03-04 01:09:00,
2014-03-03 19:14:00,25.5,21.0,30.28,ENE,74,2.9,4.9,83,0.00,,,0.00,meteobridge,2014-03-04 01:14:00,
2014-03-03 19:19:00,25.3,21.2,30.27,NNE,23,4.0,4.9,84,0.00,,,0.00,meteobridge,2014-03-04 01:19:00,
2014-03-03 19:24:00,25.3,21.2,30.27,NE,36,4.0,6.9,84,0.00,,,0.00,meteobridge,2014-03-04 01:24:00,
2014-03-03 19:29:00,25.3,21.2,30.26,NE,56,4.9,8.9,84,0.00,,,0.00,meteobridge,2014-03-04 01:29:00,
2014-03-03 19:34:00,25.2,21.0,30.26,ENE,63,4.9,10.1,84,0.00,,,0.00,meteobridge,2014-03-04 01:34:00,
2014-03-03 19:39:00,25.0,21.2,30.26,ENE,78,4.0,8.9,85,0.00,,,0.00,meteobridge,2014-03-04 01:39:00,
2014-03-03 19:44:00,25.0,21.2,30.25,East,87,2.9,6.9,85,0.00,,,0.00,meteobridge,2014-03-04 01:44:00,
2014-03-03 19:50:00,25.0,21.2,30.25,ENE,69,4.0,8.1,85,0.00,,,0.00,meteobridge,2014-03-04 01:50:00,
2014-03-03 19:55:00,24.8,21.2,30.26,ENE,74,4.9,6.0,86,0.00,,,0.00,meteobridge,2014-03-04 01:55:00,
2014-03-03 20:00:00,24.8,21.2,30.25,ENE,64,2.0,4.0,86,0.00,,,0.00,meteobridge,2014-03-04 02:00:00,
2014-03-03 20:05:00,25.0,21.4,30.27,NE,53,2.9,6.0,86,0.00,,,0.00,meteobridge,2014-03-04 02:05:00,
2014-03-03 20:10:00,25.0,21.4,30.27,East,85,2.0,4.0,86,0.00,,,0.00,meteobridge,2014-03-04 02:10:00,
2014-03-03 20:15:00,25.0,21.4,30.28,ENE,71,2.0,2.0,86,0.00,,,0.00,meteobridge,2014-03-04 02:15:00,
2014-03-03 20:20:00,25.0,21.4,30.29,NE,36,2.0,2.9,86,0.00,,,0.00,meteobridge,2014-03-04 02:20:00,
2014-03-03 20:25:00,25.0,21.4,30.29,ESE,107,0.0,2.0,86,0.00,,,0.00,meteobridge,2014-03-04 02:25:00,
2014-03-03 20:30:00,25.0,21.4,30.28,ENE,74,2.0,2.0,86,0.00,,,0.00,meteobridge,2014-03-04 02:30:00,
2014-03-03 20:36:00,25.0,21.4,30.28,ENE,74,2.0,-999.0,86,0.00,,,0.00,meteobridge,2014-03-04 02:36:00,
2014-03-03 20:41:00,25.0,21.4,30.29,ENE,65,0.9,2.0,86,0.00,,,0.00,meteobridge,2014-03-04 02:41:00,
2014-03-03 20:46:00,25.0,21.4,30.28,ENE,65,2.0,2.0,86,0.00,,,0.00,meteobridge,2014-03-04 02:46:00,
2014-03-03 20:51:00,25.0,21.4,30.28,NE,53,0.9,2.0,86,0.00,,,0.00,meteobridge,2014-03-04 02:51:00,
2014-03-03 20:56:00,25.0,21.4,30.28,NE,51,0.0,2.0,86,0.00,,,0.00,meteobridge,2014-03-04 02:56:00,
2014-03-03 21:01:00,25.0,21.2,30.28,NE,51,0.0,0.9,85,0.00,,,0.00,meteobridge,2014-03-04 03:01:00,
2014-03-03 21:06:00,25.0,21.4,30.29,NE,50,0.0,0.0,86,0.00,,,0.00,meteobridge,2014-03-04 03:06:00,
2014-03-03 21:11:00,24.8,21.2,30.29,NE,50,0.0,0.0,86,0.00,,,0.00,meteobridge,2014-03-04 03:11:00,
2014-03-03 21:17:00,24.8,21.2,30.29,NE,50,0.0,0.0,86,0.00,,,0.00,meteobridge,2014-03-04 03:17:00,
2014-03-03 21:22:00,25.0,21.7,30.29,NE,50,0.0,0.0,87,0.00,,,0.00,meteobridge,2014-03-04 03:22:00,
2014-03-03 21:27:00,25.0,21.7,30.29,NE,51,0.9,0.9,87,0.00,,,0.00,meteobridge,2014-03-04 03:27:00,
2014-03-03 21:32:00,25.0,21.9,30.29,East,84,0.0,0.9,88,0.00,,,0.00,meteobridge,2014-03-04 03:32:00,
2014-03-03 21:38:00,25.0,21.9,30.28,WNW,294,0.0,2.0,88,0.00,,,0.00,meteobridge,2014-03-04 03:38:00,
2014-03-03 21:43:00,25.0,21.9,30.28,WNW,294,0.0,0.0,88,0.00,,,0.00,meteobridge,2014-03-04 03:43:00,
2014-03-03 21:48:00,24.8,21.7,30.27,WNW,294,0.0,0.9,88,0.00,,,0.00,meteobridge,2014-03-04 03:48:00,
2014-03-03 21:53:00,24.8,21.7,30.28,WNW,294,0.9,0.9,88,0.00,,,0.00,meteobridge,2014-03-04 03:53:00,
2014-03-03 21:58:00,25.0,21.9,30.28,WNW,296,2.0,2.0,88,0.00,,,0.00,meteobridge,2014-03-04 03:58:00,
2014-03-03 22:03:00,24.8,21.7,30.27,NW,315,0.9,0.9,88,0.00,,,0.00,meteobridge,2014-03-04 04:03:00,
2014-03-03 22:08:00,24.6,21.6,30.27,NW,315,2.0,2.0,88,0.00,,,0.00,meteobridge,2014-03-04 04:08:00,
2014-03-03 22:13:00,24.4,21.7,30.27,NW,315,0.0,0.9,89,0.00,,,0.00,meteobridge,2014-03-04 04:13:00,
2014-03-03 22:18:00,24.4,21.9,30.27,NE,39,0.0,2.0,90,0.00,,,0.00,meteobridge,2014-03-04 04:18:00,
2014-03-03 22:23:00,24.4,21.9,30.26,North,0,0.0,2.0,90,0.00,,,0.00,meteobridge,2014-03-04 04:23:00,
2014-03-03 22:28:00,24.4,21.7,30.26,North,355,0.9,2.0,89,0.00,,,0.00,meteobridge,2014-03-04 04:28:00,
2014-03-03 22:34:00,24.4,21.7,30.26,NNW,344,0.9,2.0,89,0.00,,,0.00,meteobridge,2014-03-04 04:34:00,
2014-03-03 22:39:00,24.4,21.7,30.26,NNE,30,2.0,2.9,89,0.00,,,0.00,meteobridge,2014-03-04 04:39:00,
2014-03-03 22:44:00,24.4,21.7,30.26,NNW,340,0.9,2.9,89,0.00,,,0.00,meteobridge,2014-03-04 04:44:00,
2014-03-03 22:49:00,24.4,21.4,30.26,NNW,327,2.0,2.0,88,0.00,,,0.00,meteobridge,2014-03-04 04:49:00,
2014-03-03 22:54:00,24.4,21.4,30.25,North,0,2.0,2.0,88,0.00,,,0.00,meteobridge,2014-03-04 04:54:00,
2014-03-03 22:59:00,24.6,21.6,30.26,NNW,329,2.0,2.9,88,0.00,,,0.00,meteobridge,2014-03-04 04:59:00,
2014-03-03 23:01:00,24.6,21.6,30.26,NNW,331,0.9,2.9,88,0.00,,,0.00,meteobridge,2014-03-04 05:01:00,
2014-03-03 23:02:00,24.6,21.6,30.26,NNW,334,0.9,2.9,88,0.00,,,0.00,meteobridge,2014-03-04 05:02:00,
2014-03-03 23:03:00,24.6,21.6,30.26,NNW,336,0.9,2.9,88,0.00,,,0.00,meteobridge,2014-03-04 05:03:00,
2014-03-03 23:05:00,24.6,21.6,30.26,NNW,331,2.0,2.9,88,0.00,,,0.00,meteobridge,2014-03-04 05:05:00,
2014-03-03 23:10:00,24.6,21.6,30.25,NNE,13,0.9,2.0,88,0.00,,,0.00,meteobridge,2014-03-04 05:10:00,
2014-03-03 23:15:00,24.6,21.6,30.25,NNE,32,2.0,2.0,88,0.00,,,0.00,meteobridge,2014-03-04 05:15:00,
2014-03-03 23:20:00,24.6,21.6,30.25,NNW,338,0.9,0.9,88,0.00,,,0.00,meteobridge,2014-03-04 05:20:00,
2014-03-03 23:25:00,24.6,21.6,30.26,NW,309,2.9,2.9,88,0.00,,,0.00,meteobridge,2014-03-04 05:25:00,
2014-03-03 23:30:00,24.8,22.1,30.27,WNW,298,2.9,2.9,89,0.00,,,0.00,meteobridge,2014-03-04 05:30:00,
2014-03-03 23:35:00,25.0,22.3,30.27,WNW,286,2.0,2.0,89,0.00,,,0.00,meteobridge,2014-03-04 05:35:00,
2014-03-03 23:40:00,25.2,22.1,30.27,West,266,0.9,2.9,88,0.00,,,0.00,meteobridge,2014-03-04 05:40:00,
2014-03-03 23:45:00,25.2,22.5,30.26,West,281,0.9,0.9,89,0.00,,,0.00,meteobridge,2014-03-04 05:45:00,
2014-03-03 23:50:00,25.3,22.3,30.27,NW,311,0.9,2.0,88,0.00,,,0.00,meteobridge,2014-03-04 05:50:00,
2014-03-03 23:56:00,25.3,22.6,30.27,West,278,0.0,0.9,89,0.00,,,0.00,meteobridge,2014-03-04 05:56:00,